createdAt,value
2022-09-23T00:00:04.443Z,4.25
2022-09-23T00:05:33.336Z,7.20
2022-09-23T00:10:41.714Z,5.93
2022-09-23T00:15:48.122Z,6.00
2022-09-23T00:20:55.506Z,5.35
2022-09-23T00:26:03.846Z,8.98
2022-09-23T00:31:13.067Z,6.97
2022-09-23T00:36:20.280Z,6.05
2022-09-23T00:41:29.038Z,4.85
2022-09-23T00:46:41.326Z,8.77
2022-09-23T00:51:55.594Z,6.25
2022-09-23T00:57:03.945Z,9.88
2022-09-23T01:02:13.379Z,5.88
2022-09-23T01:07:22.110Z,5.68
2022-09-23T01:12:46.530Z,7.13
2022-09-23T01:18:04.809Z,6.65
2022-09-23T01:23:30.854Z,6.93
2022-09-23T01:29:14.666Z,7.20
2022-09-23T01:34:27.755Z,6.07
2022-09-23T01:39:38.570Z,4.78
2022-09-23T01:44:52.751Z,4.65
2022-09-23T01:50:25.277Z,4.57
2022-09-23T01:55:36.281Z,4.45
2022-09-23T02:00:49.557Z,6.30
2022-09-23T02:06:02.919Z,4.15
2022-09-23T02:11:11.858Z,5.97
2022-09-23T02:16:30.767Z,5.63
2022-09-23T02:26:54.867Z,4.30
2022-09-23T02:32:10.281Z,3.85
2022-09-23T02:37:32.794Z,3.30
2022-09-23T02:42:53.952Z,2.20
2022-09-23T02:48:07.139Z,3.97
2022-09-23T02:53:16.069Z,3.40
2022-09-23T02:58:22.128Z,3.47
2022-09-23T03:03:47.174Z,3.17
2022-09-23T03:09:04.006Z,2.92
2022-09-23T03:14:20.093Z,3.67
2022-09-23T03:19:34.137Z,3.25
2022-09-23T03:24:45.362Z,6.13
2022-09-23T03:29:53.736Z,2.60
2022-09-23T03:35:02.283Z,2.90
2022-09-23T03:45:26.693Z,2.92
2022-09-23T03:50:32.862Z,4.30
2022-09-23T03:55:40.724Z,6.53
2022-09-23T04:00:47.049Z,2.13
2022-09-23T04:05:52.941Z,4.45
2022-09-23T04:11:03.946Z,3.97
2022-09-23T04:16:10.106Z,2.17
2022-09-23T04:21:16.374Z,3.78
2022-09-23T04:26:23.641Z,3.63
2022-09-23T04:31:30.109Z,5.13
2022-09-23T04:36:36.225Z,4.20
2022-09-23T04:41:43.762Z,5.63
2022-09-23T04:46:50.067Z,6.35
2022-09-23T04:51:56.707Z,7.72
2022-09-23T04:57:04.155Z,8.57
2022-09-23T05:02:11.535Z,5.00
2022-09-23T05:07:19.411Z,4.22
2022-09-23T05:12:26.806Z,4.40
2022-09-23T05:17:32.874Z,7.47
2022-09-23T05:22:39.017Z,5.63
2022-09-23T05:27:46.337Z,6.57
2022-09-23T05:32:52.300Z,6.05
2022-09-23T05:37:58.281Z,5.68
2022-09-23T05:43:05.591Z,5.90
2022-09-23T05:48:11.637Z,5.78
2022-09-23T05:53:17.452Z,6.78
2022-09-23T05:58:25.173Z,7.72
2022-09-23T06:03:31.174Z,15.48
2022-09-23T06:08:38.028Z,23.02
2022-09-23T06:13:45.641Z,13.77
2022-09-23T06:18:51.780Z,9.20
2022-09-23T06:24:00.390Z,9.25
2022-09-23T06:29:13.054Z,8.38
2022-09-23T06:34:19.996Z,8.15
2022-09-23T06:39:26.241Z,6.65
2022-09-23T06:44:33.659Z,6.05
2022-09-23T06:49:39.658Z,5.50
2022-09-23T06:54:45.814Z,6.32
2022-09-23T06:59:53.276Z,7.40
2022-09-23T07:04:59.112Z,6.55
2022-09-23T07:10:06.114Z,8.00
2022-09-23T07:15:15.733Z,7.65
2022-09-23T07:20:21.554Z,12.05
2022-09-23T07:25:29.485Z,5.45
2022-09-23T07:30:50.930Z,4.13
2022-09-23T07:35:58.219Z,7.30
2022-09-23T07:41:07.078Z,5.85
2022-09-23T07:46:17.747Z,6.20
2022-09-23T07:51:29.058Z,7.28
2022-09-23T07:56:39.744Z,4.43
2022-09-23T08:01:49.911Z,3.92
2022-09-23T08:06:59.132Z,1.15
2022-09-23T08:12:05.771Z,2.45
2022-09-23T08:17:14.336Z,1.45
2022-09-23T08:22:21.196Z,1.02
2022-09-23T08:27:28.409Z,0.35
2022-09-23T08:32:36.328Z,0.30
2022-09-23T08:37:42.543Z,0.43
2022-09-23T08:42:49.476Z,0.38
2022-09-23T08:48:02.448Z,0.70
2022-09-23T08:53:16.735Z,0.85
2022-09-23T08:58:46.250Z,1.98
2022-09-23T09:03:56.945Z,1.25
2022-09-23T09:09:06.233Z,3.65
2022-09-23T09:14:24.986Z,1.23
2022-09-23T09:19:58.505Z,1.23
2022-09-23T09:25:19.445Z,0.55
2022-09-23T09:30:26.102Z,1.38
2022-09-23T09:35:40.481Z,2.17
2022-09-23T09:40:49.776Z,2.15
2022-09-23T09:46:13.519Z,1.00
2022-09-23T09:51:25.225Z,1.17
2022-09-23T09:56:36.491Z,0.77
2022-09-23T10:01:42.888Z,0.70
2022-09-23T10:07:08.090Z,0.98
2022-09-23T10:12:18.842Z,0.57
2022-09-23T10:17:31.913Z,1.95
2022-09-23T10:22:43.626Z,0.80
2022-09-23T10:27:50.011Z,1.45
2022-09-23T10:32:57.399Z,1.65
2022-09-23T10:38:05.315Z,1.50
2022-09-23T10:43:45.945Z,0.93
2022-09-23T10:49:10.458Z,0.35
2022-09-23T10:54:44.640Z,0.82
2022-09-23T11:00:01.390Z,0.30
2022-09-23T11:05:30.890Z,1.20
2022-09-23T11:11:11.760Z,0.68
2022-09-23T11:16:32.322Z,1.60
2022-09-23T11:22:02.665Z,0.77
2022-09-23T11:27:26.337Z,2.63
2022-09-23T11:33:21.317Z,0.80
2022-09-23T11:38:36.207Z,0.63
2022-09-23T11:43:47.673Z,2.47
2022-09-23T11:49:05.180Z,2.17
2022-09-23T11:54:21.508Z,0.47
2022-09-23T11:59:40.849Z,1.95
2022-09-23T12:04:58.096Z,3.50
2022-09-23T12:10:09.379Z,3.60
2022-09-23T12:15:32.797Z,2.03
2022-09-23T12:20:59.292Z,2.72
2022-09-23T12:26:09.397Z,0.85
2022-09-23T12:31:30.807Z,0.68
2022-09-23T12:36:38.769Z,2.00
2022-09-23T12:41:49.034Z,1.67
2022-09-23T12:47:41.589Z,0.77
2022-09-23T12:52:47.673Z,1.02
2022-09-23T12:57:53.988Z,1.55
2022-09-23T13:03:20.402Z,1.08
2022-09-23T13:08:27.944Z,0.93
2022-09-23T13:13:40.171Z,2.17
2022-09-23T13:18:58.559Z,1.85
2022-09-23T13:24:22.306Z,0.95
2022-09-23T13:29:33.608Z,1.13
2022-09-23T13:34:47.674Z,0.75
2022-09-23T13:39:54.051Z,0.68
2022-09-23T13:45:00.785Z,1.20
2022-09-23T13:50:20.861Z,1.25
2022-09-23T13:55:33.670Z,0.80
2022-09-23T14:00:40.769Z,0.80
2022-09-23T14:05:49.008Z,1.02
2022-09-23T14:10:55.955Z,2.53
2022-09-23T14:16:05.406Z,0.80
2022-09-23T14:21:35.514Z,3.33
2022-09-23T14:26:44.069Z,1.98
2022-09-23T14:31:59.019Z,1.30
2022-09-23T14:37:47.277Z,1.55
2022-09-23T14:42:59.327Z,1.02
2022-09-23T14:48:10.196Z,1.45
2022-09-23T14:53:50.757Z,0.85
2022-09-23T14:58:58.848Z,0.82
2022-09-23T15:04:30.713Z,1.73
2022-09-23T15:09:41.815Z,1.23
2022-09-23T15:14:54.155Z,3.22
2022-09-23T15:20:04.842Z,1.27
2022-09-23T15:25:19.151Z,1.17
2022-09-23T15:30:25.648Z,2.63
2022-09-23T15:35:33.430Z,2.70
2022-09-23T15:40:41.612Z,1.27
2022-09-23T15:45:53.458Z,2.37
2022-09-23T15:51:04.023Z,3.28
2022-09-23T15:56:11.819Z,4.05
2022-09-23T16:01:26.087Z,13.02
2022-09-23T16:06:34.644Z,12.88
2022-09-23T16:11:46.447Z,15.90
2022-09-23T16:16:52.653Z,13.23
2022-09-23T16:21:58.869Z,14.13
2022-09-23T16:27:10.110Z,14.35
2022-09-23T16:32:21.484Z,15.65
2022-09-23T16:37:28.273Z,19.58
2022-09-23T16:42:35.746Z,13.75
2022-09-23T16:47:46.455Z,18.50
2022-09-23T16:52:56.419Z,14.05
2022-09-23T16:58:04.029Z,13.63
2022-09-23T17:03:31.383Z,12.98
2022-09-23T17:08:41.794Z,11.18
2022-09-23T17:13:49.671Z,12.43
2022-09-23T17:18:57.044Z,4.05
2022-09-23T17:24:03.912Z,7.13
2022-09-23T17:29:14.576Z,5.07
2022-09-23T17:34:20.872Z,11.48
2022-09-23T17:39:27.679Z,10.25
2022-09-23T17:44:35.679Z,6.78
2022-09-23T17:49:43.237Z,7.50
2022-09-23T17:54:49.210Z,8.80
2022-09-23T17:59:56.722Z,12.60
2022-09-23T18:05:04.657Z,12.75
2022-09-23T18:10:11.956Z,9.30
2022-09-23T18:15:20.293Z,18.77
2022-09-23T18:20:27.906Z,13.88
2022-09-23T18:25:39.574Z,18.20
2022-09-23T18:30:56.583Z,21.08
2022-09-23T18:36:05.089Z,21.40
2022-09-23T18:41:12.800Z,18.75
2022-09-23T18:46:22.609Z,27.58
2022-09-23T18:51:30.998Z,23.60
2022-09-23T18:56:43.698Z,18.30
2022-09-23T19:01:55.737Z,29.73
2022-09-23T19:07:02.500Z,23.77
2022-09-23T19:12:09.292Z,26.58
2022-09-23T19:17:17.036Z,29.73
2022-09-23T19:22:23.096Z,22.65
2022-09-23T19:27:30.274Z,32.30
2022-09-23T19:32:40.654Z,27.85
2022-09-23T19:37:49.784Z,29.33
2022-09-23T19:42:57.256Z,31.50
2022-09-23T19:48:10.238Z,38.58
2022-09-23T19:53:16.948Z,30.92
2022-09-23T19:58:23.801Z,30.95
2022-09-23T20:03:33.856Z,30.38
2022-09-23T20:08:40.372Z,32.47
2022-09-23T20:13:48.697Z,31.40
2022-09-23T20:18:56.534Z,33.77
2022-09-23T20:24:04.673Z,33.05
2022-09-23T20:29:12.678Z,39.70
2022-09-23T20:34:21.488Z,30.65
2022-09-23T20:39:28.203Z,32.73
2022-09-23T20:44:34.116Z,33.88
2022-09-23T20:49:44.010Z,50.88
2022-09-23T20:54:51.868Z,43.53
2022-09-23T20:59:58.427Z,40.50
2022-09-23T21:05:06.699Z,42.65
2022-09-23T21:10:12.680Z,35.17
2022-09-23T21:15:19.000Z,34.75
2022-09-23T21:20:26.474Z,42.83
2022-09-23T21:25:32.622Z,43.30
2022-09-23T21:30:38.896Z,31.20
2022-09-23T21:35:46.463Z,30.48
2022-09-23T21:40:59.392Z,33.42
2022-09-23T21:46:08.510Z,33.83
2022-09-23T21:51:19.509Z,28.48
2022-09-23T21:56:27.337Z,28.63
2022-09-23T22:01:36.708Z,31.40
2022-09-23T22:12:16.105Z,23.25
2022-09-23T22:17:23.317Z,26.45
2022-09-23T22:22:30.782Z,24.83
2022-09-23T22:27:57.574Z,18.58
2022-09-23T22:33:09.424Z,18.58
2022-09-23T22:38:17.005Z,21.52
2022-09-23T22:43:23.390Z,24.35
2022-09-23T22:48:29.340Z,21.75
2022-09-23T22:53:36.838Z,21.75
2022-09-23T22:58:42.823Z,26.58
2022-09-23T23:03:49.705Z,22.30
2022-09-23T23:09:02.251Z,22.95
2022-09-23T23:14:08.344Z,23.80
2022-09-23T23:19:17.541Z,25.35
2022-09-23T23:24:26.106Z,27.67
2022-09-23T23:29:32.257Z,28.83
2022-09-23T23:34:38.314Z,27.08
2022-09-23T23:39:47.882Z,24.20
2022-09-23T23:44:55.127Z,28.60
2022-09-23T23:50:01.049Z,25.27
2022-09-23T23:55:09.985Z,21.13
